Terminal Aerodrome Forecast
Issued by NWS St Louis, MO

Home | Current Version | Previous Version | Text Only | Print | Product List | Glossary On
Versions: 1 2 3 4 5 6 7 8 9 10 11 12 13 14 15 16 17
000
FTUS43 KLSX 181121
TAFCOU
TAF
KCOU 181121Z 1812/1912 13013G21KT P6SM BKN110
     FM181300 20018G24KT P6SM BKN070
     FM181400 26020G28KT P6SM BKN060
     FM182300 30020G28KT P6SM BKN045
     FM190500 32010G18KT P6SM SCT080=

USA.gov is the U.S. government's official web portal to all federal, state and local government web resources and services.